Hanamaulu, HI

5:00 PM HST on July 23, 2016 (GMT -1000)
Lihue | | Change Station

Elev 102 ft 21.98 °N, 159.34 °W | Updated 7 minutes ago

Overcast
Overcast
80 °F
Feels Like 83 °F
N
20
Wind Variable Wind from NNE

Today
High -- | Low -- °F
--% Chance of Precip.
Yesterday
High -- | Low -- °F
Precip. -- in
Pressure 29.94 in
Visibility 10.0 miles
Clouds Few 1900 ft
Few 2500 ft
Overcast 3600 ft
Heat Index 83 °F
Dew Point 70 °F
Humidity 71%
Rainfall 0.02 in
Snow Depth Not available.
6:06 AM 7:21 PM
Waning Gibbous, 80% visible
METAR PHLI 240253Z 02017KT 10SM FEW019 FEW025 OVC036 27/21 A2995 RMK AO2 SLP139 T02670211 58010 $
Pressure 29.94 in
Visibility 10.0 miles
Clouds Few 1900 ft
Few 2500 ft
Overcast 3600 ft
Heat Index 83 °F
Dew Point 70 °F
Humidity 71%
Rainfall 0.02 in
Snow Depth Not available.
6:06 AM 7:21 PM
Waning Gibbous, 80% visible
METAR PHLI 240253Z 02017KT 10SM FEW019 FEW025 OVC036 27/21 A2995 RMK AO2 SLP139 T02670211 58010 $

10-Day Weather Forecast

Almanac

Astronomy

Jul. 23, 2016 Rise Set
Actual Time
Civil Twilight
Nautical Twilight
Astronomical Twilight
Moon
Length of Visible Light
Length of Day
Tomorrow will be .
, % of the Moon is Illuminated

Today's Extremes

State Highs State Lows

Community

WunderPhotos

Upload Photos

1,927,004 photos uploaded!

WunderBlog® & News

Nearby

Air Quality

  Air Quality AQ Index Pollutant
Not available.

Snow Depth

Station Depth Elevation

Earthquake Activity

City Distance Mag. Time & Date
Minimum magnitude displayed is 2.5.

Coastal Water Temperatures

Place Temperature

Stations

Nearby Weather Stations

Station Location Temp. Windchill Dew Point Humidity Wind Precip. Elev Updated Type
                   

Watches & Warnings

High Surf Advisory
Issued: 4:08 PM HST Jul. 23, 2016 – National Weather Service

... High surf advisory now in effect until 6 PM HST Sunday for east
facing shores of Molokai Oahu and Kauai...

* surf... 10 to 14 feet tonight lowering to 6 to 9 feet on Sunday.

* Timing... through 6 PM HST Sunday.

* Impacts... moderate... expect strong breaking waves... shore
break... and strong longshore and rip currents making swimming
difficult and dangerous.

Precautionary/preparedness actions...

Beachgoers... swimmers... and surfers should heed all advice given
by ocean safety officials and exercise caution. Know your limits
and seek ocean recreation areas best suited for your abilities.



Burke


Tropical Storm Warning
Issued: 4:54 PM HST Jul. 23, 2016 – National Weather Service